Dickinson Theodore Roosevelt Regional Airport
KDIK : now visible

Airfield :











YOU CAN JOIN US ON...

 
LOGIN :

Register | Disclaimer

   EN    FR    IT 

 









Legend :    VFR   Marginal VFR   IFR   Intensive IFR   Very Intensive IFR
Visi :
Ceiling :
>= 8 km
>= 3000ft
5 to 8 km
1000 to 3000 ft
1500m to 5 km
500 to 1000 ft
800 to 1500m
200 to 500 ft
< 800m
< 200 ft
Symbols :   Thunderstorms  Fog  Heavy snow  Heavy precipitations  Wind > 20 kt






- Airport Elevation : 2592 ft


KDIK - Dickinson Theodore Roosevelt Regional

CURRENT METAR :
  • 241656Z AUTO 29012KT 10SM BKN110 M02/M04 A3008 RMK AO2 SLP223 T10221039

EXPIRED METARs :
  • 241630Z AUTO 30014KT 10SM SCT004 SCT110 M03/M04 A3008 RMK AO2 T10281039
  • 241603Z AUTO 30011KT 3SM BR OVC003 M03/M04 A3008 RMK AO2 T10331044
  • 241556Z AUTO 30011KT 1 1/4SM BR OVC003 M03/M05 A3007 RMK AO2 SLP219 T10331050
  • 241541Z AUTO 29016KT 1 3/4SM BR BKN003 OVC100 M04/M06 A3007 RMK AO2 VIS 3/4V5 T10391056
  • 241528Z AUTO 29017KT 10SM SCT005 OVC100 M04/M06 A3006 RMK AO2 T10441061
  • 241456Z AUTO 27011KT 10SM FEW100 FEW120 M04/M06 A3004 RMK AO2 SLP205 T10391061 53016

TAF KDIK
Valid from the 24 at 12:00 until the 25 at 12:00 UTC


241120Z 2412/2512 28008KT P6SM BKN100
FM241700 31015KT P6SM SCT250
FM241800 30016G24KT P6SM SCT250
FM250100 25011KT P6SM FEW250
KZMP FIR / North America



MET'MAP, your aeronautical weather chart ! - Copyright ORBIFLY December 2007 - Disclaimer

ORBIFLY MET'MAP TEAM :

Programming & Development : Alexandra Zaïnal
Concept & original design : Baudouin d'Aumeries
Assistance for programming : Marc-Olivier Méhu
Technical & hardware support : Manuel Goepfert

Contact : metmap@orbifly.com




SOURCES & CREDITS :

   NOAA       Earth
Advisory